sensor_id;sensor_type;location;lat;lon;timestamp;P1;durP1;ratioP1;P2;durP2;ratioP2
43154;SDS011;34212;51.018;13.586;2023-12-20T00:00:17;0.40;;;0.40;;
43154;SDS011;34212;51.018;13.586;2023-12-20T00:05:19;0.50;;;0.50;;
43154;SDS011;34212;51.018;13.586;2023-12-20T00:10:20;0.47;;;0.47;;
43154;SDS011;34212;51.018;13.586;2023-12-20T00:15:22;0.40;;;0.40;;
43154;SDS011;34212;51.018;13.586;2023-12-20T00:20:24;0.40;;;0.40;;
43154;SDS011;34212;51.018;13.586;2023-12-20T00:25:25;0.50;;;0.50;;
43154;SDS011;34212;51.018;13.586;2023-12-20T00:30:27;0.40;;;0.40;;
43154;SDS011;34212;51.018;13.586;2023-12-20T00:35:29;0.43;;;0.43;;
43154;SDS011;34212;51.018;13.586;2023-12-20T00:40:30;0.47;;;0.47;;
43154;SDS011;34212;51.018;13.586;2023-12-20T00:45:32;0.40;;;0.40;;
43154;SDS011;34212;51.018;13.586;2023-12-20T00:50:33;0.50;;;0.50;;
43154;SDS011;34212;51.018;13.586;2023-12-20T00:55:35;0.38;;;0.38;;
43154;SDS011;34212;51.018;13.586;2023-12-20T01:00:36;0.40;;;0.40;;
43154;SDS011;34212;51.018;13.586;2023-12-20T01:05:40;0.40;;;0.40;;
43154;SDS011;34212;51.018;13.586;2023-12-20T01:10:42;0.50;;;0.50;;
43154;SDS011;34212;51.018;13.586;2023-12-20T01:15:44;0.50;;;0.50;;
43154;SDS011;34212;51.018;13.586;2023-12-20T01:20:45;0.50;;;0.50;;
43154;SDS011;34212;51.018;13.586;2023-12-20T01:25:47;0.40;;;0.40;;
43154;SDS011;34212;51.018;13.586;2023-12-20T01:30:49;0.47;;;0.47;;
43154;SDS011;34212;51.018;13.586;2023-12-20T01:35:51;0.50;;;0.50;;
43154;SDS011;34212;51.018;13.586;2023-12-20T01:40:53;0.38;;;0.38;;
43154;SDS011;34212;51.018;13.586;2023-12-20T01:45:55;0.40;;;0.40;;
43154;SDS011;34212;51.018;13.586;2023-12-20T01:50:59;0.50;;;0.50;;
43154;SDS011;34212;51.018;13.586;2023-12-20T01:56:01;0.40;;;0.40;;
43154;SDS011;34212;51.018;13.586;2023-12-20T02:01:03;0.50;;;0.50;;
43154;SDS011;34212;51.018;13.586;2023-12-20T02:06:05;0.50;;;0.50;;
43154;SDS011;34212;51.018;13.586;2023-12-20T02:11:07;0.40;;;0.40;;
43154;SDS011;34212;51.018;13.586;2023-12-20T02:16:09;0.40;;;0.40;;
43154;SDS011;34212;51.018;13.586;2023-12-20T02:21:10;0.50;;;0.50;;
43154;SDS011;34212;51.018;13.586;2023-12-20T02:26:12;0.40;;;0.40;;
43154;SDS011;34212;51.018;13.586;2023-12-20T02:31:15;0.43;;;0.43;;
43154;SDS011;34212;51.018;13.586;2023-12-20T02:36:16;0.50;;;0.50;;
43154;SDS011;34212;51.018;13.586;2023-12-20T02:41:18;0.50;;;0.50;;
43154;SDS011;34212;51.018;13.586;2023-12-20T02:46:19;0.40;;;0.40;;
43154;SDS011;34212;51.018;13.586;2023-12-20T02:51:21;0.40;;;0.40;;
43154;SDS011;34212;51.018;13.586;2023-12-20T02:56:23;0.50;;;0.50;;
43154;SDS011;34212;51.018;13.586;2023-12-20T03:01:24;0.40;;;0.40;;
43154;SDS011;34212;51.018;13.586;2023-12-20T03:06:26;0.50;;;0.50;;
43154;SDS011;34212;51.018;13.586;2023-12-20T03:11:28;0.40;;;0.40;;
43154;SDS011;34212;51.018;13.586;2023-12-20T03:16:30;0.43;;;0.43;;
43154;SDS011;34212;51.018;13.586;2023-12-20T03:21:33;0.40;;;0.40;;
43154;SDS011;34212;51.018;13.586;2023-12-20T03:26:35;0.47;;;0.47;;
43154;SDS011;34212;51.018;13.586;2023-12-20T03:31:37;0.47;;;0.47;;
43154;SDS011;34212;51.018;13.586;2023-12-20T03:36:39;0.40;;;0.40;;
43154;SDS011;34212;51.018;13.586;2023-12-20T03:41:41;0.40;;;0.40;;
43154;SDS011;34212;51.018;13.586;2023-12-20T03:46:42;0.40;;;0.40;;
43154;SDS011;34212;51.018;13.586;2023-12-20T03:51:44;0.50;;;0.50;;
43154;SDS011;34212;51.018;13.586;2023-12-20T03:56:46;0.50;;;0.50;;
43154;SDS011;34212;51.018;13.586;2023-12-20T04:01:47;0.40;;;0.40;;
43154;SDS011;34212;51.018;13.586;2023-12-20T04:06:49;0.50;;;0.50;;
43154;SDS011;34212;51.018;13.586;2023-12-20T04:11:51;0.40;;;0.40;;
43154;SDS011;34212;51.018;13.586;2023-12-20T04:16:52;0.40;;;0.40;;
43154;SDS011;34212;51.018;13.586;2023-12-20T04:21:54;0.50;;;0.50;;
43154;SDS011;34212;51.018;13.586;2023-12-20T04:26:56;0.40;;;0.40;;
43154;SDS011;34212;51.018;13.586;2023-12-20T04:31:58;0.40;;;0.40;;
43154;SDS011;34212;51.018;13.586;2023-12-20T04:36:59;0.38;;;0.38;;
43154;SDS011;34212;51.018;13.586;2023-12-20T04:42:03;0.40;;;0.40;;
43154;SDS011;34212;51.018;13.586;2023-12-20T04:47:04;0.47;;;0.47;;
43154;SDS011;34212;51.018;13.586;2023-12-20T04:52:06;0.40;;;0.40;;
43154;SDS011;34212;51.018;13.586;2023-12-20T04:57:08;0.50;;;0.50;;
43154;SDS011;34212;51.018;13.586;2023-12-20T05:02:09;0.40;;;0.40;;
43154;SDS011;34212;51.018;13.586;2023-12-20T05:07:11;0.50;;;0.50;;
43154;SDS011;34212;51.018;13.586;2023-12-20T05:12:12;0.40;;;0.40;;
43154;SDS011;34212;51.018;13.586;2023-12-20T05:17:14;0.45;;;0.45;;
43154;SDS011;34212;51.018;13.586;2023-12-20T05:22:15;0.30;;;0.30;;
43154;SDS011;34212;51.018;13.586;2023-12-20T05:27:17;0.40;;;0.40;;
43154;SDS011;34212;51.018;13.586;2023-12-20T05:32:18;0.40;;;0.40;;
43154;SDS011;34212;51.018;13.586;2023-12-20T05:37:20;0.40;;;0.40;;
43154;SDS011;34212;51.018;13.586;2023-12-20T05:42:22;0.40;;;0.40;;
43154;SDS011;34212;51.018;13.586;2023-12-20T05:47:23;0.50;;;0.50;;
43154;SDS011;34212;51.018;13.586;2023-12-20T05:52:25;0.50;;;0.50;;
43154;SDS011;34212;51.018;13.586;2023-12-20T05:57:27;0.50;;;0.50;;
43154;SDS011;34212;51.018;13.586;2023-12-20T06:02:28;0.50;;;0.50;;
43154;SDS011;34212;51.018;13.586;2023-12-20T06:07:30;0.50;;;0.50;;
43154;SDS011;34212;51.018;13.586;2023-12-20T06:12:31;0.40;;;0.40;;
43154;SDS011;34212;51.018;13.586;2023-12-20T06:17:34;0.50;;;0.50;;
43154;SDS011;34212;51.018;13.586;2023-12-20T06:22:36;0.40;;;0.40;;
43154;SDS011;34212;51.018;13.586;2023-12-20T06:27:38;0.40;;;0.40;;
43154;SDS011;34212;51.018;13.586;2023-12-20T06:32:39;0.50;;;0.50;;
43154;SDS011;34212;51.018;13.586;2023-12-20T06:37:41;0.50;;;0.50;;
43154;SDS011;34212;51.018;13.586;2023-12-20T06:42:44;0.50;;;0.50;;
43154;SDS011;34212;51.018;13.586;2023-12-20T06:48:02;0.50;;;0.50;;
43154;SDS011;34212;51.018;13.586;2023-12-20T06:53:03;0.50;;;0.50;;
43154;SDS011;34212;51.018;13.586;2023-12-20T06:58:08;0.40;;;0.40;;
43154;SDS011;34212;51.018;13.586;2023-12-20T07:03:10;1.90;;;1.60;;
43154;SDS011;34212;51.018;13.586;2023-12-20T07:08:11;3.10;;;2.15;;
43154;SDS011;34212;51.018;13.586;2023-12-20T07:13:15;3.47;;;2.53;;
43154;SDS011;34212;51.018;13.586;2023-12-20T07:18:17;3.00;;;2.40;;
43154;SDS011;34212;51.018;13.586;2023-12-20T07:23:18;2.58;;;2.30;;
43154;SDS011;34212;51.018;13.586;2023-12-20T07:28:21;3.63;;;3.22;;
43154;SDS011;34212;51.018;13.586;2023-12-20T07:33:23;3.67;;;3.05;;
43154;SDS011;34212;51.018;13.586;2023-12-20T07:38:24;3.83;;;3.42;;
43154;SDS011;34212;51.018;13.586;2023-12-20T07:43:26;3.83;;;2.80;;
43154;SDS011;34212;51.018;13.586;2023-12-20T07:48:27;3.47;;;3.05;;
43154;SDS011;34212;51.018;13.586;2023-12-20T07:53:29;5.15;;;2.78;;
43154;SDS011;34212;51.018;13.586;2023-12-20T07:58:30;5.15;;;3.08;;
43154;SDS011;34212;51.018;13.586;2023-12-20T08:03:50;3.90;;;2.67;;
43154;SDS011;34212;51.018;13.586;2023-12-20T08:08:53;3.10;;;2.40;;
43154;SDS011;34212;51.018;13.586;2023-12-20T08:14:02;4.43;;;2.70;;
43154;SDS011;34212;51.018;13.586;2023-12-20T08:19:04;4.43;;;2.75;;
43154;SDS011;34212;51.018;13.586;2023-12-20T08:24:05;3.92;;;3.28;;
43154;SDS011;34212;51.018;13.586;2023-12-20T08:29:07;7.65;;;2.80;;
43154;SDS011;34212;51.018;13.586;2023-12-20T08:34:09;5.03;;;2.65;;
43154;SDS011;34212;51.018;13.586;2023-12-20T08:39:13;3.25;;;2.10;;
43154;SDS011;34212;51.018;13.586;2023-12-20T08:44:14;3.95;;;2.10;;
43154;SDS011;34212;51.018;13.586;2023-12-20T08:49:16;4.20;;;1.42;;
43154;SDS011;34212;51.018;13.586;2023-12-20T08:54:18;4.40;;;1.88;;
43154;SDS011;34212;51.018;13.586;2023-12-20T08:59:20;3.93;;;1.73;;
43154;SDS011;34212;51.018;13.586;2023-12-20T09:04:22;5.28;;;1.80;;
43154;SDS011;34212;51.018;13.586;2023-12-20T09:09:24;6.65;;;2.03;;
43154;SDS011;34212;51.018;13.586;2023-12-20T09:14:25;7.13;;;2.03;;
43154;SDS011;34212;51.018;13.586;2023-12-20T09:19:27;2.90;;;1.92;;
43154;SDS011;34212;51.018;13.586;2023-12-20T09:24:29;4.03;;;2.58;;
43154;SDS011;34212;51.018;13.586;2023-12-20T09:29:31;3.88;;;2.28;;
43154;SDS011;34212;51.018;13.586;2023-12-20T09:34:33;6.43;;;2.70;;
43154;SDS011;34212;51.018;13.586;2023-12-20T09:39:35;3.58;;;2.13;;
43154;SDS011;34212;51.018;13.586;2023-12-20T09:44:36;2.80;;;1.90;;
43154;SDS011;34212;51.018;13.586;2023-12-20T09:49:38;3.22;;;2.00;;
43154;SDS011;34212;51.018;13.586;2023-12-20T09:54:40;3.30;;;1.95;;
43154;SDS011;34212;51.018;13.586;2023-12-20T09:59:42;4.90;;;2.27;;
43154;SDS011;34212;51.018;13.586;2023-12-20T10:04:45;2.88;;;1.90;;
43154;SDS011;34212;51.018;13.586;2023-12-20T10:09:49;3.25;;;1.80;;
43154;SDS011;34212;51.018;13.586;2023-12-20T10:14:56;3.70;;;1.75;;
43154;SDS011;34212;51.018;13.586;2023-12-20T10:19:59;2.50;;;1.75;;
43154;SDS011;34212;51.018;13.586;2023-12-20T10:25:01;3.88;;;1.80;;
43154;SDS011;34212;51.018;13.586;2023-12-20T10:30:03;7.63;;;2.30;;
43154;SDS011;34212;51.018;13.586;2023-12-20T10:35:06;4.93;;;2.13;;
43154;SDS011;34212;51.018;13.586;2023-12-20T10:45:10;3.72;;;2.30;;
43154;SDS011;34212;51.018;13.586;2023-12-20T10:50:12;7.60;;;2.47;;
43154;SDS011;34212;51.018;13.586;2023-12-20T10:55:14;6.80;;;2.30;;
43154;SDS011;34212;51.018;13.586;2023-12-20T11:00:16;5.03;;;2.10;;
43154;SDS011;34212;51.018;13.586;2023-12-20T11:05:22;3.85;;;2.10;;
43154;SDS011;34212;51.018;13.586;2023-12-20T11:10:31;3.78;;;2.70;;
43154;SDS011;34212;51.018;13.586;2023-12-20T11:15:43;3.72;;;1.95;;
43154;SDS011;34212;51.018;13.586;2023-12-20T11:20:45;6.00;;;2.17;;
43154;SDS011;34212;51.018;13.586;2023-12-20T11:25:48;3.85;;;1.92;;
43154;SDS011;34212;51.018;13.586;2023-12-20T11:30:53;3.88;;;1.90;;
43154;SDS011;34212;51.018;13.586;2023-12-20T11:35:57;5.50;;;2.17;;
43154;SDS011;34212;51.018;13.586;2023-12-20T11:41:00;2.78;;;1.80;;
43154;SDS011;34212;51.018;13.586;2023-12-20T11:46:05;6.68;;;2.95;;
43154;SDS011;34212;51.018;13.586;2023-12-20T11:51:09;4.38;;;1.80;;
43154;SDS011;34212;51.018;13.586;2023-12-20T11:56:14;7.68;;;1.88;;
43154;SDS011;34212;51.018;13.586;2023-12-20T12:01:16;4.10;;;1.90;;
43154;SDS011;34212;51.018;13.586;2023-12-20T12:06:18;3.05;;;1.67;;
43154;SDS011;34212;51.018;13.586;2023-12-20T12:11:20;4.70;;;2.10;;
43154;SDS011;34212;51.018;13.586;2023-12-20T12:16:21;4.53;;;1.80;;
43154;SDS011;34212;51.018;13.586;2023-12-20T12:21:23;4.32;;;1.58;;
43154;SDS011;34212;51.018;13.586;2023-12-20T12:26:33;3.85;;;1.60;;
43154;SDS011;34212;51.018;13.586;2023-12-20T12:31:35;4.10;;;1.52;;
43154;SDS011;34212;51.018;13.586;2023-12-20T12:36:37;4.07;;;2.00;;
43154;SDS011;34212;51.018;13.586;2023-12-20T12:41:39;3.00;;;1.50;;
43154;SDS011;34212;51.018;13.586;2023-12-20T12:46:40;5.53;;;1.63;;
43154;SDS011;34212;51.018;13.586;2023-12-20T12:51:43;3.83;;;1.65;;
43154;SDS011;34212;51.018;13.586;2023-12-20T12:56:45;4.18;;;1.70;;
43154;SDS011;34212;51.018;13.586;2023-12-20T13:01:48;3.55;;;1.60;;
43154;SDS011;34212;51.018;13.586;2023-12-20T13:06:50;2.55;;;1.80;;
43154;SDS011;34212;51.018;13.586;2023-12-20T13:11:52;5.65;;;1.92;;
43154;SDS011;34212;51.018;13.586;2023-12-20T13:16:54;2.67;;;1.67;;
43154;SDS011;34212;51.018;13.586;2023-12-20T13:21:57;2.53;;;1.58;;
43154;SDS011;34212;51.018;13.586;2023-12-20T13:27:00;3.95;;;1.63;;
43154;SDS011;34212;51.018;13.586;2023-12-20T13:32:01;4.22;;;1.50;;
43154;SDS011;34212;51.018;13.586;2023-12-20T13:37:05;5.03;;;1.90;;
43154;SDS011;34212;51.018;13.586;2023-12-20T13:42:06;5.55;;;1.50;;
43154;SDS011;34212;51.018;13.586;2023-12-20T13:47:08;4.23;;;1.50;;
43154;SDS011;34212;51.018;13.586;2023-12-20T13:52:10;3.90;;;1.90;;
43154;SDS011;34212;51.018;13.586;2023-12-20T13:57:12;5.05;;;1.45;;
43154;SDS011;34212;51.018;13.586;2023-12-20T14:02:32;2.53;;;1.42;;
43154;SDS011;34212;51.018;13.586;2023-12-20T14:07:33;2.72;;;1.35;;
43154;SDS011;34212;51.018;13.586;2023-12-20T14:12:35;3.45;;;1.60;;
43154;SDS011;34212;51.018;13.586;2023-12-20T14:17:38;1.80;;;1.52;;
43154;SDS011;34212;51.018;13.586;2023-12-20T14:22:40;4.33;;;2.03;;
43154;SDS011;34212;51.018;13.586;2023-12-20T14:27:45;2.83;;;1.33;;
43154;SDS011;34212;51.018;13.586;2023-12-20T14:32:48;1.95;;;1.35;;
43154;SDS011;34212;51.018;13.586;2023-12-20T14:37:50;3.45;;;1.40;;
43154;SDS011;34212;51.018;13.586;2023-12-20T14:42:51;2.55;;;1.40;;
43154;SDS011;34212;51.018;13.586;2023-12-20T14:47:53;5.38;;;1.50;;
43154;SDS011;34212;51.018;13.586;2023-12-20T14:52:54;9.52;;;1.70;;
43154;SDS011;34212;51.018;13.586;2023-12-20T14:57:57;2.43;;;1.20;;
43154;SDS011;34212;51.018;13.586;2023-12-20T15:02:59;3.57;;;1.40;;
43154;SDS011;34212;51.018;13.586;2023-12-20T15:08:01;3.53;;;1.50;;
43154;SDS011;34212;51.018;13.586;2023-12-20T15:13:02;3.33;;;1.75;;
43154;SDS011;34212;51.018;13.586;2023-12-20T15:18:04;1.77;;;1.40;;
43154;SDS011;34212;51.018;13.586;2023-12-20T15:23:06;3.85;;;1.70;;
43154;SDS011;34212;51.018;13.586;2023-12-20T15:28:09;2.28;;;1.50;;
43154;SDS011;34212;51.018;13.586;2023-12-20T15:33:10;4.05;;;1.50;;
43154;SDS011;34212;51.018;13.586;2023-12-20T15:38:12;2.80;;;1.50;;
43154;SDS011;34212;51.018;13.586;2023-12-20T15:43:14;4.50;;;1.65;;
43154;SDS011;34212;51.018;13.586;2023-12-20T15:48:16;1.90;;;1.30;;
43154;SDS011;34212;51.018;13.586;2023-12-20T15:53:20;2.65;;;1.60;;
43154;SDS011;34212;51.018;13.586;2023-12-20T15:58:21;2.95;;;1.77;;
43154;SDS011;34212;51.018;13.586;2023-12-20T16:03:23;5.18;;;2.17;;
43154;SDS011;34212;51.018;13.586;2023-12-20T16:08:26;3.13;;;1.60;;
43154;SDS011;34212;51.018;13.586;2023-12-20T16:13:28;3.17;;;1.73;;
43154;SDS011;34212;51.018;13.586;2023-12-20T16:18:30;3.78;;;1.50;;
43154;SDS011;34212;51.018;13.586;2023-12-20T16:23:32;5.00;;;2.20;;
43154;SDS011;34212;51.018;13.586;2023-12-20T16:28:34;4.25;;;1.83;;
43154;SDS011;34212;51.018;13.586;2023-12-20T16:33:36;4.35;;;1.60;;
43154;SDS011;34212;51.018;13.586;2023-12-20T16:38:37;4.25;;;1.58;;
43154;SDS011;34212;51.018;13.586;2023-12-20T16:43:39;2.05;;;1.30;;
43154;SDS011;34212;51.018;13.586;2023-12-20T16:48:41;2.47;;;1.45;;
43154;SDS011;34212;51.018;13.586;2023-12-20T16:53:43;3.80;;;1.70;;
43154;SDS011;34212;51.018;13.586;2023-12-20T16:58:45;3.35;;;1.65;;
43154;SDS011;34212;51.018;13.586;2023-12-20T17:03:46;2.38;;;1.67;;
43154;SDS011;34212;51.018;13.586;2023-12-20T17:08:48;5.38;;;1.70;;
43154;SDS011;34212;51.018;13.586;2023-12-20T17:18:53;3.20;;;1.60;;
43154;SDS011;34212;51.018;13.586;2023-12-20T17:23:55;5.47;;;1.80;;
43154;SDS011;34212;51.018;13.586;2023-12-20T17:28:57;5.90;;;1.70;;
43154;SDS011;34212;51.018;13.586;2023-12-20T17:33:59;4.90;;;1.88;;
43154;SDS011;34212;51.018;13.586;2023-12-20T17:39:00;5.43;;;2.03;;
43154;SDS011;34212;51.018;13.586;2023-12-20T17:44:02;6.80;;;1.95;;
43154;SDS011;34212;51.018;13.586;2023-12-20T17:49:03;2.67;;;1.77;;
43154;SDS011;34212;51.018;13.586;2023-12-20T17:54:06;4.25;;;2.05;;
43154;SDS011;34212;51.018;13.586;2023-12-20T17:59:08;4.18;;;1.77;;
43154;SDS011;34212;51.018;13.586;2023-12-20T18:04:10;5.53;;;2.08;;
43154;SDS011;34212;51.018;13.586;2023-12-20T18:09:12;8.63;;;1.92;;
43154;SDS011;34212;51.018;13.586;2023-12-20T18:14:13;3.10;;;1.80;;
43154;SDS011;34212;51.018;13.586;2023-12-20T18:19:15;3.40;;;1.70;;
43154;SDS011;34212;51.018;13.586;2023-12-20T18:24:18;4.63;;;2.05;;
43154;SDS011;34212;51.018;13.586;2023-12-20T18:29:19;2.15;;;1.25;;
43154;SDS011;34212;51.018;13.586;2023-12-20T18:34:21;3.72;;;2.13;;
43154;SDS011;34212;51.018;13.586;2023-12-20T18:39:25;4.50;;;2.35;;
43154;SDS011;34212;51.018;13.586;2023-12-20T18:44:26;5.47;;;2.85;;
43154;SDS011;34212;51.018;13.586;2023-12-20T18:49:28;8.02;;;2.30;;
43154;SDS011;34212;51.018;13.586;2023-12-20T18:54:30;4.45;;;2.42;;
43154;SDS011;34212;51.018;13.586;2023-12-20T18:59:31;4.78;;;2.47;;
43154;SDS011;34212;51.018;13.586;2023-12-20T19:04:33;5.45;;;2.38;;
43154;SDS011;34212;51.018;13.586;2023-12-20T19:09:35;5.13;;;2.72;;
43154;SDS011;34212;51.018;13.586;2023-12-20T19:14:36;3.38;;;2.30;;
43154;SDS011;34212;51.018;13.586;2023-12-20T19:19:38;8.15;;;2.45;;
43154;SDS011;34212;51.018;13.586;2023-12-20T19:24:39;4.20;;;2.30;;
43154;SDS011;34212;51.018;13.586;2023-12-20T19:29:41;4.30;;;2.50;;
43154;SDS011;34212;51.018;13.586;2023-12-20T19:34:43;3.65;;;1.60;;
43154;SDS011;34212;51.018;13.586;2023-12-20T19:39:45;5.50;;;2.47;;
43154;SDS011;34212;51.018;13.586;2023-12-20T19:44:48;4.30;;;2.50;;
43154;SDS011;34212;51.018;13.586;2023-12-20T19:49:50;4.85;;;1.83;;
43154;SDS011;34212;51.018;13.586;2023-12-20T19:54:52;4.38;;;2.40;;
43154;SDS011;34212;51.018;13.586;2023-12-20T19:59:53;8.00;;;2.20;;
43154;SDS011;34212;51.018;13.586;2023-12-20T20:04:55;5.05;;;2.38;;
43154;SDS011;34212;51.018;13.586;2023-12-20T20:09:57;3.55;;;1.73;;
43154;SDS011;34212;51.018;13.586;2023-12-20T20:14:59;3.33;;;1.60;;
43154;SDS011;34212;51.018;13.586;2023-12-20T20:20:00;2.33;;;1.35;;
43154;SDS011;34212;51.018;13.586;2023-12-20T20:25:02;3.22;;;1.50;;
43154;SDS011;34212;51.018;13.586;2023-12-20T20:30:05;2.83;;;1.50;;
43154;SDS011;34212;51.018;13.586;2023-12-20T20:35:07;3.13;;;1.60;;
43154;SDS011;34212;51.018;13.586;2023-12-20T20:40:09;3.17;;;1.50;;
43154;SDS011;34212;51.018;13.586;2023-12-20T20:45:13;1.83;;;1.20;;
43154;SDS011;34212;51.018;13.586;2023-12-20T20:50:15;1.27;;;1.17;;
43154;SDS011;34212;51.018;13.586;2023-12-20T20:55:17;1.42;;;1.20;;
43154;SDS011;34212;51.018;13.586;2023-12-20T21:00:19;1.45;;;1.35;;
43154;SDS011;34212;51.018;13.586;2023-12-20T21:05:21;1.20;;;1.10;;
43154;SDS011;34212;51.018;13.586;2023-12-20T21:10:23;1.55;;;1.33;;
43154;SDS011;34212;51.018;13.586;2023-12-20T21:15:24;1.45;;;1.10;;
43154;SDS011;34212;51.018;13.586;2023-12-20T21:20:26;2.45;;;1.40;;
43154;SDS011;34212;51.018;13.586;2023-12-20T21:25:28;1.63;;;1.27;;
43154;SDS011;34212;51.018;13.586;2023-12-20T21:30:29;1.25;;;1.15;;
43154;SDS011;34212;51.018;13.586;2023-12-20T21:35:35;2.45;;;1.25;;
43154;SDS011;34212;51.018;13.586;2023-12-20T21:40:37;2.20;;;1.40;;
43154;SDS011;34212;51.018;13.586;2023-12-20T21:45:38;2.08;;;1.40;;
43154;SDS011;34212;51.018;13.586;2023-12-20T21:50:40;1.45;;;1.00;;
43154;SDS011;34212;51.018;13.586;2023-12-20T21:55:42;1.23;;;1.08;;
43154;SDS011;34212;51.018;13.586;2023-12-20T22:00:44;1.10;;;1.00;;
43154;SDS011;34212;51.018;13.586;2023-12-20T22:05:45;1.27;;;1.02;;
43154;SDS011;34212;51.018;13.586;2023-12-20T22:10:48;1.30;;;1.00;;
43154;SDS011;34212;51.018;13.586;2023-12-20T22:15:50;1.83;;;1.25;;
43154;SDS011;34212;51.018;13.586;2023-12-20T22:20:52;1.25;;;0.90;;
43154;SDS011;34212;51.018;13.586;2023-12-20T22:25:54;2.93;;;1.40;;
43154;SDS011;34212;51.018;13.586;2023-12-20T22:30:56;1.80;;;1.20;;
43154;SDS011;34212;51.018;13.586;2023-12-20T22:35:57;3.10;;;1.27;;
43154;SDS011;34212;51.018;13.586;2023-12-20T22:40:59;2.40;;;1.10;;
43154;SDS011;34212;51.018;13.586;2023-12-20T22:46:01;1.52;;;1.25;;
43154;SDS011;34212;51.018;13.586;2023-12-20T22:51:04;2.95;;;1.00;;
43154;SDS011;34212;51.018;13.586;2023-12-20T22:56:06;2.22;;;1.50;;
43154;SDS011;34212;51.018;13.586;2023-12-20T23:01:08;1.50;;;1.40;;
43154;SDS011;34212;51.018;13.586;2023-12-20T23:06:10;1.52;;;1.33;;
43154;SDS011;34212;51.018;13.586;2023-12-20T23:11:12;3.00;;;1.40;;
43154;SDS011;34212;51.018;13.586;2023-12-20T23:16:14;2.05;;;1.40;;
43154;SDS011;34212;51.018;13.586;2023-12-20T23:21:16;1.35;;;1.10;;
43154;SDS011;34212;51.018;13.586;2023-12-20T23:26:17;3.30;;;1.83;;
43154;SDS011;34212;51.018;13.586;2023-12-20T23:31:22;1.88;;;1.30;;
43154;SDS011;34212;51.018;13.586;2023-12-20T23:36:25;3.05;;;2.15;;
43154;SDS011;34212;51.018;13.586;2023-12-20T23:41:27;2.17;;;1.40;;
43154;SDS011;34212;51.018;13.586;2023-12-20T23:46:29;2.15;;;1.10;;
43154;SDS011;34212;51.018;13.586;2023-12-20T23:51:31;1.27;;;1.10;;
43154;SDS011;34212;51.018;13.586;2023-12-20T23:56:35;4.60;;;1.45;;
